createdAt,value
2022-12-25T00:00:20.744Z,100724.00
2022-12-25T00:02:22.877Z,100731.88
2022-12-25T00:04:24.589Z,100732.16
2022-12-25T00:06:26.252Z,100746.53
2022-12-25T00:08:27.887Z,100750.28
2022-12-25T00:10:29.467Z,100761.13
2022-12-25T00:12:32.621Z,100758.41
2022-12-25T00:14:34.245Z,100758.78
2022-12-25T00:16:35.918Z,100754.34
2022-12-25T00:18:37.500Z,100747.38
2022-12-25T00:20:39.037Z,100741.09
2022-12-25T00:22:40.642Z,100732.16
2022-12-25T00:24:42.164Z,100719.72
2022-12-25T00:26:43.755Z,100721.91
2022-12-25T00:28:46.807Z,100717.00
2022-12-25T00:30:48.463Z,100721.06
2022-12-25T00:32:50.063Z,100718.63
2022-12-25T00:34:51.700Z,100716.78
2022-12-25T00:36:53.268Z,100717.09
2022-12-25T00:38:54.917Z,100718.94
2022-12-25T00:40:56.520Z,100720.81
2022-12-25T00:42:58.329Z,100719.50
2022-12-25T00:45:01.327Z,100717.19
2022-12-25T00:47:03.586Z,100718.25
2022-12-25T00:49:05.236Z,100716.91
2022-12-25T00:51:17.709Z,100721.75
2022-12-25T00:53:19.331Z,100719.13
2022-12-25T00:55:20.882Z,100719.91
2022-12-25T00:57:22.517Z,100726.63
2022-12-25T00:59:24.142Z,100723.69
2022-12-25T01:01:27.182Z,100725.09
2022-12-25T01:03:29.018Z,100732.13
2022-12-25T01:05:30.746Z,100736.13
2022-12-25T01:07:32.324Z,100735.09
2022-12-25T01:09:33.892Z,100726.69
2022-12-25T01:11:35.522Z,100739.41
2022-12-25T01:13:38.096Z,100745.41
2022-12-25T01:15:39.704Z,100746.78
2022-12-25T01:17:43.118Z,100744.88
2022-12-25T01:19:44.749Z,100751.63
2022-12-25T01:21:46.335Z,100748.38
2022-12-25T01:23:48.786Z,100745.22
2022-12-25T01:25:50.359Z,100743.59
2022-12-25T01:27:51.958Z,100752.78
2022-12-25T01:29:53.792Z,100744.94
2022-12-25T01:31:55.453Z,100737.63
2022-12-25T01:33:58.395Z,100729.78
2022-12-25T01:36:00.013Z,100736.81
2022-12-25T01:38:01.606Z,100742.53
2022-12-25T01:40:03.553Z,100755.19
2022-12-25T01:42:05.294Z,100765.78
2022-12-25T01:44:27.863Z,100758.44
2022-12-25T01:46:30.205Z,100764.38
2022-12-25T01:48:35.587Z,100758.19
2022-12-25T01:50:43.659Z,100757.88
2022-12-25T01:52:46.702Z,100753.88
2022-12-25T01:54:51.739Z,100738.72
2022-12-25T01:56:57.344Z,100748.16
2022-12-25T01:58:59.761Z,100755.22
2022-12-25T02:01:01.481Z,100751.19
2022-12-25T02:03:03.838Z,100746.03
2022-12-25T02:05:10.253Z,100743.91
2022-12-25T02:07:14.707Z,100741.44
2022-12-25T02:09:16.313Z,100745.78
2022-12-25T02:11:17.951Z,100735.78
2022-12-25T02:13:20.231Z,100726.84
2022-12-25T02:15:27.813Z,100730.38
2022-12-25T02:17:35.743Z,100715.50
2022-12-25T02:19:56.467Z,100712.81
2022-12-25T02:22:10.846Z,100713.09
2022-12-25T02:24:52.348Z,100709.66
2022-12-25T02:27:11.367Z,100704.47
2022-12-25T02:29:21.463Z,100698.28
2022-12-25T02:31:31.314Z,100696.34
2022-12-25T02:33:39.684Z,100698.28
2022-12-25T02:35:43.759Z,100699.13
2022-12-25T02:37:52.390Z,100703.16
2022-12-25T02:39:59.598Z,100699.06
2022-12-25T02:42:05.972Z,100710.41
2022-12-25T02:44:12.990Z,100699.88
2022-12-25T02:46:20.378Z,100693.09
2022-12-25T02:48:26.116Z,100695.50
2022-12-25T02:50:27.943Z,100696.66
2022-12-25T02:52:30.652Z,100691.78
2022-12-25T02:54:36.511Z,100690.09
2022-12-25T02:56:40.249Z,100680.09
2022-12-25T02:58:44.461Z,100676.78
2022-12-25T03:00:48.762Z,100666.28
2022-12-25T03:02:52.924Z,100669.78
2022-12-25T03:04:57.688Z,100658.69
2022-12-25T03:07:07.202Z,100663.56
2022-12-25T03:09:12.451Z,100668.19
2022-12-25T03:11:14.055Z,100663.03
2022-12-25T03:13:20.111Z,100668.97
2022-12-25T03:15:22.575Z,100658.94
2022-12-25T03:17:24.652Z,100648.66
2022-12-25T03:19:31.654Z,100656.50
2022-12-25T03:21:33.274Z,100655.69
2022-12-25T03:23:37.437Z,100650.50
2022-12-25T03:25:39.012Z,100642.97
2022-12-25T03:27:44.250Z,100639.44
2022-12-25T03:29:45.929Z,100629.44
2022-12-25T03:31:54.875Z,100630.03
2022-12-25T03:34:08.004Z,100635.13
2022-12-25T03:36:18.377Z,100628.41
2022-12-25T03:38:30.187Z,100628.97
2022-12-25T03:40:38.936Z,100630.06
2022-12-25T03:42:51.291Z,100636.56
2022-12-25T03:45:00.358Z,100630.94
2022-12-25T03:47:09.851Z,100635.25
2022-12-25T03:49:20.024Z,100638.25
2022-12-25T03:51:29.881Z,100642.56
2022-12-25T03:53:39.103Z,100638.81
2022-12-25T03:55:42.209Z,100644.47
2022-12-25T03:57:46.780Z,100638.78
2022-12-25T03:59:48.343Z,100632.56
2022-12-25T04:01:50.467Z,100630.19
2022-12-25T04:03:52.096Z,100623.69
2022-12-25T04:05:53.687Z,100621.00
2022-12-25T04:07:56.656Z,100624.25
2022-12-25T04:09:58.247Z,100621.84
2022-12-25T04:12:02.712Z,100626.47
2022-12-25T04:14:07.779Z,100622.41
2022-12-25T04:16:09.315Z,100622.16
2022-12-25T04:18:11.130Z,100613.81
2022-12-25T04:20:12.735Z,100610.81
2022-12-25T04:22:14.305Z,100617.34
2022-12-25T04:24:17.228Z,100612.22
2022-12-25T04:26:19.013Z,100615.41
2022-12-25T04:28:20.524Z,100613.53
2022-12-25T04:30:22.089Z,100610.25
2022-12-25T04:32:23.621Z,100607.25
2022-12-25T04:34:25.186Z,100610.81
2022-12-25T04:36:26.708Z,100602.63
2022-12-25T04:38:28.240Z,100605.63
2022-12-25T04:40:31.145Z,100614.28
2022-12-25T04:42:32.946Z,100613.19
2022-12-25T04:44:34.569Z,100613.22
2022-12-25T04:46:36.284Z,100619.16
2022-12-25T04:48:37.879Z,100629.19
2022-12-25T04:50:39.478Z,100633.75
2022-12-25T04:52:41.294Z,100617.28
2022-12-25T04:54:42.824Z,100611.88
2022-12-25T04:56:46.170Z,100607.25
2022-12-25T04:58:48.121Z,100614.78
2022-12-25T05:00:49.695Z,100613.91
2022-12-25T05:02:51.534Z,100615.31
2022-12-25T05:04:53.261Z,100601.78
2022-12-25T05:06:54.889Z,100605.59
2022-12-25T05:08:56.544Z,100602.00
2022-12-25T05:10:58.197Z,100607.94
2022-12-25T05:13:01.091Z,100608.75
2022-12-25T05:15:02.758Z,100612.22
2022-12-25T05:17:04.305Z,100609.53
2022-12-25T05:19:05.853Z,100614.44
2022-12-25T05:21:09.126Z,100614.44
2022-12-25T05:23:11.258Z,100618.25
2022-12-25T05:25:12.771Z,100611.78
2022-12-25T05:27:14.975Z,100607.69
2022-12-25T05:29:17.882Z,100603.09
2022-12-25T05:31:20.018Z,100600.19
2022-12-25T05:33:21.618Z,100593.38
2022-12-25T05:35:23.128Z,100590.59
2022-12-25T05:37:24.665Z,100590.59
2022-12-25T05:39:26.297Z,100589.50
2022-12-25T05:41:33.799Z,100591.13
2022-12-25T05:43:35.931Z,100585.44
2022-12-25T05:45:39.001Z,100580.59
2022-12-25T05:47:40.585Z,100577.53
2022-12-25T05:49:42.654Z,100584.25
2022-12-25T05:51:44.233Z,100580.25
2022-12-25T05:53:45.796Z,100585.66
2022-12-25T05:55:47.411Z,100602.97
2022-12-25T05:57:48.960Z,100597.88
2022-12-25T05:59:50.531Z,100601.88
2022-12-25T06:01:53.541Z,100605.16
2022-12-25T06:03:56.026Z,100605.47
2022-12-25T06:05:57.661Z,100607.56
2022-12-25T06:07:59.215Z,100608.75
2022-12-25T06:10:00.881Z,100613.34
2022-12-25T06:12:02.496Z,100606.59
2022-12-25T06:14:04.025Z,100605.50
2022-12-25T06:16:06.617Z,100599.09
2022-12-25T06:18:09.614Z,100601.53
2022-12-25T06:20:11.692Z,100601.78
2022-12-25T06:22:13.227Z,100593.91
2022-12-25T06:24:21.036Z,100591.72
2022-12-25T06:26:23.082Z,100589.81
2022-12-25T06:28:24.663Z,100589.25
2022-12-25T06:30:26.208Z,100582.72
2022-12-25T06:32:27.841Z,100571.41
2022-12-25T06:34:30.823Z,100564.91
2022-12-25T06:36:32.511Z,100564.91
2022-12-25T06:38:34.369Z,100576.72
2022-12-25T06:40:35.923Z,100570.75
2022-12-25T06:42:37.494Z,100567.75
2022-12-25T06:44:39.032Z,100572.13
2022-12-25T06:46:40.629Z,100570.81
2022-12-25T06:48:43.037Z,100572.41
2022-12-25T06:50:45.974Z,100571.66
2022-12-25T06:52:47.513Z,100570.88
2022-12-25T06:54:49.038Z,100565.78
2022-12-25T06:56:50.578Z,100573.06
2022-12-25T06:58:53.810Z,100582.47
2022-12-25T07:00:55.712Z,100579.00
2022-12-25T07:02:57.438Z,100584.91
2022-12-25T07:05:00.562Z,100586.53
2022-12-25T07:07:08.773Z,100582.00
2022-12-25T07:09:10.932Z,100581.47
2022-12-25T07:11:12.491Z,100578.69
2022-12-25T07:13:14.030Z,100577.38
2022-12-25T07:15:15.642Z,100567.66
2022-12-25T07:17:17.740Z,100571.81
2022-12-25T07:19:19.370Z,100564.28
2022-12-25T07:21:21.454Z,100560.25
2022-12-25T07:23:24.333Z,100559.38
2022-12-25T07:25:25.835Z,100549.69
2022-12-25T07:27:27.337Z,100545.28
2022-12-25T07:29:28.869Z,100541.28
2022-12-25T07:31:33.212Z,100532.63
2022-12-25T07:33:34.954Z,100522.69
2022-12-25T07:35:36.547Z,100527.38
2022-12-25T07:37:38.112Z,100535.13
2022-12-25T07:39:41.115Z,100538.91
2022-12-25T07:41:42.866Z,100544.03
2022-12-25T07:43:44.413Z,100550.25
2022-12-25T07:45:46.130Z,100554.25
2022-12-25T07:47:47.744Z,100559.69
2022-12-25T07:49:49.268Z,100546.38
2022-12-25T07:51:50.832Z,100545.84
2022-12-25T07:53:54.153Z,100546.91
2022-12-25T07:56:02.481Z,100547.41
2022-12-25T07:58:04.068Z,100548.00
2022-12-25T08:00:10.376Z,100553.97
2022-12-25T08:02:12.062Z,100562.31
2022-12-25T08:04:13.931Z,100576.63
2022-12-25T08:06:15.627Z,100580.44
2022-12-25T08:08:17.209Z,100575.03
2022-12-25T08:10:18.769Z,100567.44
2022-12-25T08:12:21.737Z,100564.78
2022-12-25T08:14:23.355Z,100556.09
2022-12-25T08:16:25.385Z,100566.34
2022-12-25T08:18:30.098Z,100552.00
2022-12-25T08:20:32.005Z,100547.41
2022-12-25T08:22:33.624Z,100546.91
2022-12-25T08:24:35.227Z,100538.78
2022-12-25T08:26:36.875Z,100526.81
2022-12-25T08:28:40.321Z,100526.94
2022-12-25T08:30:41.943Z,100534.34
2022-12-25T08:32:43.552Z,100543.25
2022-12-25T08:34:45.261Z,100554.94
2022-12-25T08:36:46.901Z,100547.63
2022-12-25T08:38:48.581Z,100544.34
2022-12-25T08:40:50.143Z,100523.00
2022-12-25T08:42:51.909Z,100516.22
2022-12-25T08:44:54.836Z,100504.81
2022-12-25T08:46:56.420Z,100489.41
2022-12-25T08:48:58.236Z,100469.59
2022-12-25T08:51:00.035Z,100458.59
2022-12-25T08:53:02.054Z,100448.09
2022-12-25T08:55:04.023Z,100460.44
2022-12-25T08:57:05.575Z,100467.91
2022-12-25T08:59:07.140Z,100470.34
2022-12-25T09:01:10.760Z,100481.69
2022-12-25T09:03:12.459Z,100488.41
2022-12-25T09:05:14.212Z,100489.91
2022-12-25T09:07:15.819Z,100491.63
2022-12-25T09:09:17.458Z,100492.97
2022-12-25T09:11:20.246Z,100502.38
2022-12-25T09:13:21.904Z,100507.50
2022-12-25T09:15:23.532Z,100514.22
2022-12-25T09:17:29.954Z,100520.66
2022-12-25T09:19:31.867Z,100528.00
2022-12-25T09:21:33.647Z,100524.47
2022-12-25T09:23:35.360Z,100531.28
2022-12-25T09:25:36.983Z,100522.06
2022-12-25T09:27:38.570Z,100530.44
2022-12-25T09:29:40.278Z,100539.09
2022-12-25T09:31:44.653Z,100538.81
2022-12-25T09:33:47.774Z,100536.91
2022-12-25T09:36:00.113Z,100530.59
2022-12-25T09:38:02.496Z,100536.81
2022-12-25T09:40:05.213Z,100542.72
2022-12-25T09:42:12.137Z,100524.59
2022-12-25T09:44:18.925Z,100517.00
2022-12-25T09:46:23.548Z,100515.66
2022-12-25T09:48:28.009Z,100517.00
2022-12-25T09:50:40.057Z,100506.06
2022-12-25T09:52:45.991Z,100507.09
2022-12-25T09:54:56.481Z,100503.81
2022-12-25T09:56:58.115Z,100498.59
2022-12-25T09:58:59.876Z,100488.28
2022-12-25T10:01:12.795Z,100487.91
2022-12-25T10:03:29.193Z,100485.63
2022-12-25T10:05:52.035Z,100476.59
2022-12-25T10:08:03.200Z,100463.25
2022-12-25T10:10:18.283Z,100459.75
2022-12-25T10:12:37.923Z,100465.75
2022-12-25T10:14:49.454Z,100456.03
2022-12-25T10:17:01.948Z,100439.78
2022-12-25T10:19:14.165Z,100449.50
2022-12-25T10:21:18.791Z,100452.03
2022-12-25T10:23:27.216Z,100447.81
2022-12-25T10:25:28.949Z,100446.31
2022-12-25T10:27:34.628Z,100442.69
2022-12-25T10:29:36.288Z,100436.69
2022-12-25T10:31:37.965Z,100428.56
2022-12-25T10:33:39.605Z,100436.69
2022-12-25T10:35:47.471Z,100430.97
2022-12-25T10:37:57.404Z,100432.56
2022-12-25T10:39:59.386Z,100431.16
2022-12-25T10:42:28.225Z,100422.72
2022-12-25T10:44:30.429Z,100423.22
2022-12-25T10:46:32.293Z,100423.44
2022-12-25T10:48:34.031Z,100420.13
2022-12-25T10:50:42.772Z,100410.56
2022-12-25T10:53:00.417Z,100420.31
2022-12-25T10:55:11.472Z,100425.53
2022-12-25T10:57:16.035Z,100423.13
2022-12-25T10:59:17.598Z,100423.63
2022-12-25T11:01:19.381Z,100411.06
2022-12-25T11:03:23.510Z,100412.69
2022-12-25T11:05:28.243Z,100416.41
2022-12-25T11:07:31.067Z,100417.88
2022-12-25T11:09:34.331Z,100424.13
2022-12-25T11:11:36.112Z,100419.50
2022-12-25T11:13:47.300Z,100413.28
2022-12-25T11:15:50.097Z,100411.16
2022-12-25T11:17:51.678Z,100414.66
2022-12-25T11:19:57.030Z,100418.69
2022-12-25T11:22:01.987Z,100423.44
2022-12-25T11:24:05.111Z,100420.09
2022-12-25T11:26:10.384Z,100421.50
2022-12-25T11:28:12.298Z,100407.66
2022-12-25T11:30:16.231Z,100414.38
2022-12-25T11:32:22.476Z,100404.66
2022-12-25T11:34:32.293Z,100405.63
2022-12-25T11:36:43.580Z,100401.81
2022-12-25T11:38:45.235Z,100389.25
2022-12-25T11:40:49.926Z,100387.34
2022-12-25T11:42:57.566Z,100387.34
2022-12-25T11:45:05.351Z,100389.75
2022-12-25T11:47:13.347Z,100384.94
2022-12-25T11:49:18.607Z,100381.91
2022-12-25T11:51:21.088Z,100383.53
2022-12-25T11:53:29.155Z,100381.91
2022-12-25T11:55:35.574Z,100378.09
2022-12-25T11:57:39.094Z,100371.47
2022-12-25T11:59:50.200Z,100368.94
2022-12-25T12:01:57.547Z,100360.00
2022-12-25T12:04:00.885Z,100343.44
2022-12-25T12:06:08.687Z,100341.69
2022-12-25T12:08:10.568Z,100332.97
2022-12-25T12:10:18.280Z,100323.72
2022-12-25T12:12:27.181Z,100322.00
2022-12-25T12:14:42.155Z,100315.34
2022-12-25T12:16:45.234Z,100324.56
2022-12-25T12:18:50.277Z,100318.03
2022-12-25T12:21:00.619Z,100319.53
2022-12-25T12:23:05.025Z,100320.81
2022-12-25T12:25:07.821Z,100314.91
2022-12-25T12:27:22.281Z,100314.78
2022-12-25T12:29:28.165Z,100318.13
2022-12-25T12:31:38.573Z,100329.13
2022-12-25T12:33:54.657Z,100325.81
2022-12-25T12:35:57.519Z,100338.16
2022-12-25T12:38:02.076Z,100342.19
2022-12-25T12:40:05.795Z,100352.88
2022-12-25T12:42:13.571Z,100355.94
2022-12-25T12:44:17.466Z,100351.78
2022-12-25T12:46:27.963Z,100356.41
2022-12-25T12:48:40.317Z,100347.63
2022-12-25T12:50:43.591Z,100365.53
2022-12-25T12:52:45.436Z,100367.13
2022-12-25T12:54:57.039Z,100369.22
2022-12-25T12:57:00.885Z,100362.81
2022-12-25T12:59:04.803Z,100363.63
2022-12-25T13:01:14.247Z,100347.63
2022-12-25T13:03:43.751Z,100354.63
2022-12-25T13:05:50.541Z,100339.25
2022-12-25T13:08:02.442Z,100340.16
2022-12-25T13:10:16.912Z,100339.63
2022-12-25T13:12:21.460Z,100320.66
2022-12-25T13:14:24.946Z,100320.09
2022-12-25T13:16:34.626Z,100313.28
2022-12-25T13:18:39.501Z,100314.38
2022-12-25T13:20:47.898Z,100309.13
2022-12-25T13:22:52.958Z,100307.69
2022-12-25T13:24:57.232Z,100310.59
2022-12-25T13:27:00.198Z,100308.19
2022-12-25T13:29:03.947Z,100313.47
2022-12-25T13:31:15.652Z,100316.34
2022-12-25T13:33:19.099Z,100313.78
2022-12-25T13:35:23.149Z,100310.75
2022-12-25T13:37:29.826Z,100314.78
2022-12-25T13:39:33.854Z,100305.97
2022-12-25T13:41:42.150Z,100303.78
2022-12-25T13:43:44.805Z,100295.53
2022-12-25T13:45:54.671Z,100285.44
2022-12-25T13:47:57.031Z,100284.03
2022-12-25T13:50:01.269Z,100274.59
2022-12-25T13:52:11.650Z,100258.81
2022-12-25T13:54:16.152Z,100246.34
2022-12-25T13:56:17.772Z,100256.41
2022-12-25T13:58:27.333Z,100262.94
2022-12-25T14:00:33.306Z,100277.31
2022-12-25T14:02:37.360Z,100275.69
2022-12-25T14:04:44.517Z,100279.25
2022-12-25T14:06:47.709Z,100269.97
2022-12-25T14:08:50.967Z,100274.59
2022-12-25T14:10:55.570Z,100271.25
2022-12-25T14:13:00.864Z,100281.94
2022-12-25T14:15:04.274Z,100281.13
2022-12-25T14:17:06.053Z,100288.66
2022-12-25T14:19:24.973Z,100288.97
2022-12-25T14:21:29.797Z,100288.16
2022-12-25T14:23:39.381Z,100292.81
2022-12-25T14:25:42.743Z,100291.38
2022-12-25T14:27:50.702Z,100297.78
2022-12-25T14:29:55.646Z,100300.50
2022-12-25T14:32:00.333Z,100302.56
2022-12-25T14:34:04.996Z,100302.88
2022-12-25T14:36:07.391Z,100294.25
2022-12-25T14:38:17.303Z,100289.16
2022-12-25T14:40:23.909Z,100288.50
2022-12-25T14:42:27.403Z,100298.06
2022-12-25T14:44:33.819Z,100296.94
2022-12-25T14:46:35.452Z,100298.69
2022-12-25T14:48:37.169Z,100294.19
2022-12-25T14:50:43.046Z,100295.63
2022-12-25T14:52:45.359Z,100304.06
2022-12-25T14:54:49.805Z,100308.97
2022-12-25T14:56:53.559Z,100307.09
2022-12-25T14:58:56.936Z,100312.34
2022-12-25T15:01:02.723Z,100305.97
2022-12-25T15:03:06.866Z,100304.38
2022-12-25T15:05:24.497Z,100302.59
2022-12-25T15:07:29.493Z,100299.78
2022-12-25T15:09:31.075Z,100303.94
2022-12-25T15:11:33.017Z,100290.66
2022-12-25T15:13:34.621Z,100284.28
2022-12-25T15:15:36.271Z,100282.78
2022-12-25T15:17:39.195Z,100277.06
2022-12-25T15:19:40.783Z,100288.72
2022-12-25T15:21:42.402Z,100292.22
2022-12-25T15:23:44.404Z,100300.16
2022-12-25T15:25:46.091Z,100291.25
2022-12-25T15:27:49.158Z,100290.63
2022-12-25T15:32:16.995Z,100277.53
2022-12-25T15:34:20.863Z,100278.84
2022-12-25T15:36:23.558Z,100287.47
2022-12-25T15:38:25.250Z,100294.81
2022-12-25T15:40:26.855Z,100294.50
2022-12-25T15:42:28.514Z,100289.88
2022-12-25T15:44:30.110Z,100290.16
2022-12-25T15:46:32.354Z,100289.81
2022-12-25T15:48:34.047Z,100296.34
2022-12-25T15:50:36.989Z,100297.78
2022-12-25T15:52:38.599Z,100298.88
2022-12-25T15:54:40.261Z,100298.09
2022-12-25T15:56:44.599Z,100296.50
2022-12-25T15:58:46.186Z,100307.78
2022-12-25T16:00:47.788Z,100312.09
2022-12-25T16:02:49.894Z,100327.44
2022-12-25T16:04:51.876Z,100341.50
2022-12-25T16:06:55.691Z,100334.25
2022-12-25T16:08:57.288Z,100339.66
2022-12-25T16:10:58.803Z,100343.81
2022-12-25T16:13:00.415Z,100339.66
2022-12-25T16:15:02.096Z,100331.34
2022-12-25T16:17:03.962Z,100329.28
2022-12-25T16:19:05.944Z,100327.19
2022-12-25T16:21:13.096Z,100321.06
2022-12-25T16:23:16.080Z,100330.63
2022-12-25T16:25:19.366Z,100325.50
2022-12-25T16:27:21.327Z,100312.06
2022-12-25T16:29:22.975Z,100309.97
2022-12-25T16:31:24.531Z,100311.69
2022-12-25T16:33:26.259Z,100298.94
2022-12-25T16:35:27.857Z,100299.56
2022-12-25T16:37:29.451Z,100291.25
2022-12-25T16:39:33.035Z,100284.72
2022-12-25T16:41:34.692Z,100275.41
2022-12-25T16:43:36.253Z,100267.13
2022-12-25T16:45:38.549Z,100272.69
2022-12-25T16:47:42.928Z,100297.09
2022-12-25T16:49:44.479Z,100304.38
2022-12-25T16:51:46.124Z,100311.13
2022-12-25T16:53:48.025Z,100313.94
2022-12-25T16:55:50.887Z,100307.91
2022-12-25T16:57:52.492Z,100313.94
2022-12-25T16:59:54.084Z,100319.06
2022-12-25T17:01:55.741Z,100318.25
2022-12-25T17:03:59.105Z,100315.88
2022-12-25T17:06:01.787Z,100306.41
2022-12-25T17:08:03.537Z,100301.81
2022-12-25T17:10:06.443Z,100309.75
2022-12-25T17:12:09.579Z,100311.97
2022-12-25T17:14:11.143Z,100316.28
2022-12-25T17:16:14.772Z,100324.41
2022-12-25T17:18:16.283Z,100328.03
2022-12-25T17:20:17.863Z,100326.22
2022-12-25T17:22:19.467Z,100329.41
2022-12-25T17:24:21.594Z,100332.44
2022-12-25T17:26:23.133Z,100339.78
2022-12-25T17:28:26.012Z,100331.66
2022-12-25T17:30:27.563Z,100329.72
2022-12-25T17:32:29.118Z,100331.66
2022-12-25T17:34:30.656Z,100318.78
2022-12-25T17:36:32.988Z,100321.19
2022-12-25T17:38:34.613Z,100310.44
2022-12-25T17:40:36.353Z,100315.88
2022-12-25T17:42:37.885Z,100317.78
2022-12-25T17:44:40.804Z,100315.09
2022-12-25T17:46:42.680Z,100313.78
2022-12-25T17:48:44.692Z,100312.69
2022-12-25T17:50:46.728Z,100313.38
2022-12-25T17:52:48.305Z,100320.09
2022-12-25T17:54:49.847Z,100316.19
2022-12-25T17:56:51.381Z,100306.78
2022-12-25T17:58:55.166Z,100305.66
2022-12-25T18:00:58.133Z,100312.97
2022-12-25T18:03:03.016Z,100313.78
2022-12-25T18:05:10.604Z,100312.00
2022-12-25T18:07:12.884Z,100315.81
2022-12-25T18:09:14.445Z,100314.38
2022-12-25T18:11:19.123Z,100322.38
2022-12-25T18:13:20.677Z,100325.59
2022-12-25T18:15:22.244Z,100332.94
2022-12-25T18:17:25.221Z,100338.16
2022-12-25T18:19:26.822Z,100334.97
2022-12-25T18:21:28.674Z,100331.44
2022-12-25T18:23:30.901Z,100334.03
2022-12-25T18:25:32.535Z,100330.22
2022-12-25T18:27:34.081Z,100331.66
2022-12-25T18:29:35.675Z,100332.63
2022-12-25T18:31:37.362Z,100331.03
2022-12-25T18:33:40.877Z,100337.53
2022-12-25T18:35:43.533Z,100326.00
2022-12-25T18:37:45.196Z,100325.72
2022-12-25T18:39:47.323Z,100329.81
2022-12-25T18:41:48.927Z,100329.13
2022-12-25T18:43:52.630Z,100333.44
2022-12-25T18:45:57.642Z,100339.78
2022-12-25T18:47:59.267Z,100331.97
2022-12-25T18:50:02.362Z,100339.25
2022-12-25T18:52:48.825Z,100335.25
2022-12-25T18:54:25.858Z,100345.00
2022-12-25T18:56:27.451Z,100343.38
2022-12-25T18:58:29.153Z,100332.97
2022-12-25T19:00:30.979Z,100330.44
2022-12-25T19:02:32.705Z,100335.44
2022-12-25T19:04:34.377Z,100338.97
2022-12-25T19:06:37.346Z,100337.44
2022-12-25T19:08:38.884Z,100333.44
2022-12-25T19:10:43.635Z,100331.84
2022-12-25T19:12:45.684Z,100338.88
2022-12-25T19:14:48.541Z,100346.47
2022-12-25T19:16:50.239Z,100346.78
2022-12-25T19:18:52.111Z,100345.47
2022-12-25T19:20:53.725Z,100340.16
2022-12-25T19:22:56.627Z,100333.13
2022-12-25T19:24:58.306Z,100325.03
2022-12-25T19:27:01.371Z,100324.19
2022-12-25T19:29:03.535Z,100325.53
2022-12-25T19:31:07.556Z,100320.63
2022-12-25T19:33:15.591Z,100316.50
2022-12-25T19:35:19.153Z,100307.19
2022-12-25T19:37:20.856Z,100315.88
2022-12-25T19:39:23.772Z,100309.50
2022-12-25T19:41:25.474Z,100313.19
2022-12-25T19:43:28.060Z,100310.47
2022-12-25T19:45:29.727Z,100312.91
2022-12-25T19:47:31.357Z,100316.59
2022-12-25T19:49:32.995Z,100311.50
2022-12-25T19:51:37.345Z,100317.69
2022-12-25T19:53:38.936Z,100317.22
2022-12-25T19:55:41.912Z,100324.50
2022-12-25T19:57:43.474Z,100317.69
2022-12-25T19:59:45.215Z,100319.09
2022-12-25T20:01:47.189Z,100320.41
2022-12-25T20:03:49.485Z,100319.72
2022-12-25T20:05:51.578Z,100333.66
2022-12-25T20:07:53.934Z,100346.47
2022-12-25T20:09:55.493Z,100349.69
2022-12-25T20:12:01.539Z,100348.28
2022-12-25T20:14:04.034Z,100353.59
2022-12-25T20:16:06.594Z,100352.22
2022-12-25T20:18:08.404Z,100346.00
2022-12-25T20:20:11.003Z,100347.09
2022-12-25T20:22:12.623Z,100338.47
2022-12-25T20:24:14.183Z,100339.75
2022-12-25T20:26:17.749Z,100335.16
2022-12-25T20:28:20.753Z,100337.66
2022-12-25T20:30:22.361Z,100339.19
2022-12-25T20:32:23.997Z,100341.28
2022-12-25T20:34:25.691Z,100332.44
2022-12-25T20:36:31.196Z,100335.97
2022-12-25T20:38:36.169Z,100345.78
2022-12-25T20:41:24.023Z,100341.97
2022-12-25T20:42:59.314Z,100354.53
2022-12-25T20:45:03.536Z,100354.72
2022-12-25T20:47:05.261Z,100361.75
2022-12-25T20:49:07.304Z,100371.16
2022-12-25T20:51:11.098Z,100372.91
2022-12-25T20:53:12.720Z,100386.00
2022-12-25T20:55:14.317Z,100375.78
2022-12-25T20:57:15.962Z,100383.41
2022-12-25T20:59:17.623Z,100390.81
2022-12-25T21:01:20.755Z,100384.63
2022-12-25T21:03:23.032Z,100385.31
2022-12-25T21:05:24.670Z,100394.56
2022-12-25T21:07:26.388Z,100369.97
2022-12-25T21:09:28.251Z,100376.78
2022-12-25T21:11:29.827Z,100385.78
2022-12-25T21:13:33.227Z,100390.13
2022-12-25T21:15:34.785Z,100387.63
2022-12-25T21:17:37.708Z,100393.22
2022-12-25T21:19:39.361Z,100394.72
2022-12-25T21:21:40.965Z,100403.38
2022-12-25T21:23:42.536Z,100400.97
2022-12-25T21:25:44.380Z,100401.75
2022-12-25T21:27:45.955Z,100392.91
2022-12-25T21:29:47.487Z,100401.31
2022-12-25T21:31:49.091Z,100387.59
2022-12-25T21:33:53.299Z,100391.09
2022-12-25T21:35:55.067Z,100396.22
2022-12-25T21:37:56.799Z,100404.44
2022-12-25T21:39:58.629Z,100403.00
2022-12-25T21:42:00.194Z,100401.41
2022-12-25T21:44:02.198Z,100399.84
2022-12-25T21:46:04.769Z,100406.03
2022-12-25T21:48:06.662Z,100393.50
2022-12-25T21:50:10.694Z,100401.72
2022-12-25T21:52:12.469Z,100401.91
2022-12-25T21:54:14.845Z,100407.13
2022-12-25T21:56:17.209Z,100407.66
2022-12-25T21:58:18.769Z,100407.53
2022-12-25T22:00:20.749Z,100411.38
2022-12-25T22:02:22.476Z,100419.50
2022-12-25T22:04:24.237Z,100423.06
2022-12-25T22:06:27.166Z,100418.34
2022-12-25T22:08:29.888Z,100414.88
2022-12-25T22:10:31.455Z,100428.72
2022-12-25T22:12:34.521Z,100428.19
2022-12-25T22:14:50.522Z,100428.47
2022-12-25T22:16:55.207Z,100436.41
2022-12-25T22:18:56.788Z,100446.13
2022-12-25T22:20:58.326Z,100442.03
2022-12-25T22:23:01.475Z,100451.75
2022-12-25T22:25:05.612Z,100453.06
2022-12-25T22:27:07.270Z,100454.38
2022-12-25T22:29:08.833Z,100454.38
2022-12-25T22:31:10.498Z,100448.97
2022-12-25T22:33:13.202Z,100452.25
2022-12-25T22:35:15.046Z,100470.81
2022-12-25T22:37:18.204Z,100456.50
2022-12-25T22:39:21.200Z,100462.41
2022-12-25T22:41:22.741Z,100460.53
2022-12-25T22:43:43.337Z,100458.16
2022-12-25T22:45:46.333Z,100459.94
2022-12-25T22:47:48.002Z,100459.19
2022-12-25T22:49:49.671Z,100453.28
2022-12-25T22:51:52.033Z,100462.16
2022-12-25T22:53:57.396Z,100450.72
2022-12-25T22:56:03.353Z,100457.72
2022-12-25T22:58:04.882Z,100466.34
2022-12-25T23:00:08.583Z,100467.16
2022-12-25T23:02:10.231Z,100455.44
2022-12-25T23:04:12.431Z,100465.75
2022-12-25T23:06:14.035Z,100462.25
2022-12-25T23:08:15.625Z,100465.16
2022-12-25T23:10:17.268Z,100469.75
2022-12-25T23:12:20.208Z,100468.97
2022-12-25T23:14:21.854Z,100479.81
2022-12-25T23:16:23.904Z,100471.69
2022-12-25T23:18:25.524Z,100467.38
2022-12-25T23:20:27.051Z,100476.78
2022-12-25T23:22:28.608Z,100479.41
2022-12-25T23:24:30.171Z,100479.41
2022-12-25T23:26:31.752Z,100478.72
2022-12-25T23:28:35.338Z,100466.84
2022-12-25T23:30:36.985Z,100476.09
2022-12-25T23:32:38.977Z,100469.06
2022-12-25T23:34:44.961Z,100472.78